sensor_id;sensor_type;location;lat;lon;timestamp;P1;durP1;ratioP1;P2;durP2;ratioP2
62588;SDS011;58504;48.770;9.148;2023-05-23T00:01:57;7.85;;;5.38;;
62588;SDS011;58504;48.770;9.148;2023-05-23T00:04:25;8.00;;;5.07;;
62588;SDS011;58504;48.770;9.148;2023-05-23T00:06:52;8.50;;;5.00;;
62588;SDS011;58504;48.770;9.148;2023-05-23T00:09:19;7.55;;;5.57;;
62588;SDS011;58504;48.770;9.148;2023-05-23T00:11:45;7.07;;;5.05;;
62588;SDS011;58504;48.770;9.148;2023-05-23T00:14:12;6.40;;;5.15;;
62588;SDS011;58504;48.770;9.148;2023-05-23T00:16:40;6.72;;;5.63;;
62588;SDS011;58504;48.770;9.148;2023-05-23T00:19:08;8.70;;;5.88;;
62588;SDS011;58504;48.770;9.148;2023-05-23T00:21:37;6.75;;;4.78;;
62588;SDS011;58504;48.770;9.148;2023-05-23T00:24:03;6.05;;;5.13;;
62588;SDS011;58504;48.770;9.148;2023-05-23T00:26:31;10.18;;;6.07;;
62588;SDS011;58504;48.770;9.148;2023-05-23T00:28:58;7.07;;;5.13;;
62588;SDS011;58504;48.770;9.148;2023-05-23T00:31:25;10.07;;;5.10;;
62588;SDS011;58504;48.770;9.148;2023-05-23T00:33:51;5.20;;;4.70;;
62588;SDS011;58504;48.770;9.148;2023-05-23T00:36:18;9.07;;;7.00;;
62588;SDS011;58504;48.770;9.148;2023-05-23T00:38:47;9.80;;;6.75;;
62588;SDS011;58504;48.770;9.148;2023-05-23T00:41:14;7.28;;;5.60;;
62588;SDS011;58504;48.770;9.148;2023-05-23T00:43:42;10.20;;;6.63;;
62588;SDS011;58504;48.770;9.148;2023-05-23T00:46:09;6.90;;;5.45;;
62588;SDS011;58504;48.770;9.148;2023-05-23T00:48:36;6.53;;;5.10;;
62588;SDS011;58504;48.770;9.148;2023-05-23T00:51:03;8.05;;;5.65;;
62588;SDS011;58504;48.770;9.148;2023-05-23T00:53:30;7.53;;;5.78;;
62588;SDS011;58504;48.770;9.148;2023-05-23T00:55:59;9.05;;;6.03;;
62588;SDS011;58504;48.770;9.148;2023-05-23T00:58:27;9.30;;;6.07;;
62588;SDS011;58504;48.770;9.148;2023-05-23T01:00:54;6.13;;;5.43;;
62588;SDS011;58504;48.770;9.148;2023-05-23T01:03:21;5.57;;;5.07;;
62588;SDS011;58504;48.770;9.148;2023-05-23T01:05:52;8.25;;;6.13;;
62588;SDS011;58504;48.770;9.148;2023-05-23T01:08:19;7.93;;;5.45;;
62588;SDS011;58504;48.770;9.148;2023-05-23T01:10:46;7.95;;;5.55;;
62588;SDS011;58504;48.770;9.148;2023-05-23T01:13:19;9.82;;;6.53;;
62588;SDS011;58504;48.770;9.148;2023-05-23T01:15:54;6.97;;;5.88;;
62588;SDS011;58504;48.770;9.148;2023-05-23T01:18:25;8.65;;;6.80;;
62588;SDS011;58504;48.770;9.148;2023-05-23T01:20:57;9.73;;;6.40;;
62588;SDS011;58504;48.770;9.148;2023-05-23T01:23:40;6.53;;;5.93;;
62588;SDS011;58504;48.770;9.148;2023-05-23T01:26:30;10.02;;;7.13;;
62588;SDS011;58504;48.770;9.148;2023-05-23T01:29:08;6.22;;;5.63;;
62588;SDS011;58504;48.770;9.148;2023-05-23T01:31:40;7.28;;;5.53;;
62588;SDS011;58504;48.770;9.148;2023-05-23T01:34:09;7.07;;;6.38;;
62588;SDS011;58504;48.770;9.148;2023-05-23T01:36:38;7.00;;;6.25;;
62588;SDS011;58504;48.770;9.148;2023-05-23T01:39:07;8.93;;;7.15;;
62588;SDS011;58504;48.770;9.148;2023-05-23T01:41:34;7.68;;;6.75;;
62588;SDS011;58504;48.770;9.148;2023-05-23T01:44:01;11.32;;;7.95;;
62588;SDS011;58504;48.770;9.148;2023-05-23T01:46:30;8.48;;;6.70;;
62588;SDS011;58504;48.770;9.148;2023-05-23T01:48:59;10.93;;;7.35;;
62588;SDS011;58504;48.770;9.148;2023-05-23T01:51:27;10.02;;;7.05;;
62588;SDS011;58504;48.770;9.148;2023-05-23T01:53:54;8.32;;;6.90;;
62588;SDS011;58504;48.770;9.148;2023-05-23T01:56:22;8.50;;;7.15;;
62588;SDS011;58504;48.770;9.148;2023-05-23T01:58:51;7.63;;;6.07;;
62588;SDS011;58504;48.770;9.148;2023-05-23T02:01:17;9.10;;;6.50;;
62588;SDS011;58504;48.770;9.148;2023-05-23T02:03:46;8.57;;;6.38;;
62588;SDS011;58504;48.770;9.148;2023-05-23T02:06:13;7.20;;;6.50;;
62588;SDS011;58504;48.770;9.148;2023-05-23T02:08:39;11.15;;;8.27;;
62588;SDS011;58504;48.770;9.148;2023-05-23T02:11:07;7.45;;;6.50;;
62588;SDS011;58504;48.770;9.148;2023-05-23T02:13:34;9.07;;;6.50;;
62588;SDS011;58504;48.770;9.148;2023-05-23T02:16:01;8.77;;;6.82;;
62588;SDS011;58504;48.770;9.148;2023-05-23T02:18:28;7.65;;;6.72;;
62588;SDS011;58504;48.770;9.148;2023-05-23T02:20:56;12.35;;;6.93;;
62588;SDS011;58504;48.770;9.148;2023-05-23T02:23:23;8.43;;;7.15;;
62588;SDS011;58504;48.770;9.148;2023-05-23T02:25:50;7.18;;;6.45;;
62588;SDS011;58504;48.770;9.148;2023-05-23T02:28:17;7.93;;;6.20;;
62588;SDS011;58504;48.770;9.148;2023-05-23T02:30:43;8.68;;;7.25;;
62588;SDS011;58504;48.770;9.148;2023-05-23T02:33:11;10.68;;;7.38;;
62588;SDS011;58504;48.770;9.148;2023-05-23T02:35:38;8.48;;;7.35;;
62588;SDS011;58504;48.770;9.148;2023-05-23T02:38:06;8.23;;;6.70;;
62588;SDS011;58504;48.770;9.148;2023-05-23T02:40:33;8.95;;;7.15;;
62588;SDS011;58504;48.770;9.148;2023-05-23T02:42:59;6.90;;;6.20;;
62588;SDS011;58504;48.770;9.148;2023-05-23T02:45:26;8.63;;;7.22;;
62588;SDS011;58504;48.770;9.148;2023-05-23T02:47:53;8.48;;;7.57;;
62588;SDS011;58504;48.770;9.148;2023-05-23T02:50:22;8.45;;;6.28;;
62588;SDS011;58504;48.770;9.148;2023-05-23T02:52:49;7.65;;;6.55;;
62588;SDS011;58504;48.770;9.148;2023-05-23T02:55:17;6.85;;;6.15;;
62588;SDS011;58504;48.770;9.148;2023-05-23T02:57:44;11.45;;;7.05;;
62588;SDS011;58504;48.770;9.148;2023-05-23T03:00:11;8.43;;;7.13;;
62588;SDS011;58504;48.770;9.148;2023-05-23T03:02:39;9.00;;;7.40;;
62588;SDS011;58504;48.770;9.148;2023-05-23T03:05:07;11.38;;;8.90;;
62588;SDS011;58504;48.770;9.148;2023-05-23T03:07:34;9.23;;;8.23;;
62588;SDS011;58504;48.770;9.148;2023-05-23T03:10:00;10.63;;;8.05;;
62588;SDS011;58504;48.770;9.148;2023-05-23T03:12:28;7.40;;;6.63;;
62588;SDS011;58504;48.770;9.148;2023-05-23T03:14:55;7.82;;;7.03;;
62588;SDS011;58504;48.770;9.148;2023-05-23T03:17:23;8.23;;;7.40;;
62588;SDS011;58504;48.770;9.148;2023-05-23T03:19:50;8.45;;;7.15;;
62588;SDS011;58504;48.770;9.148;2023-05-23T03:22:17;8.05;;;7.07;;
62588;SDS011;58504;48.770;9.148;2023-05-23T03:24:44;7.75;;;6.63;;
62588;SDS011;58504;48.770;9.148;2023-05-23T03:27:10;10.35;;;7.35;;
62588;SDS011;58504;48.770;9.148;2023-05-23T03:29:39;9.15;;;8.10;;
62588;SDS011;58504;48.770;9.148;2023-05-23T03:32:05;8.85;;;7.55;;
62588;SDS011;58504;48.770;9.148;2023-05-23T03:34:33;7.85;;;6.60;;
62588;SDS011;58504;48.770;9.148;2023-05-23T03:37:00;11.32;;;7.65;;
62588;SDS011;58504;48.770;9.148;2023-05-23T03:39:27;8.73;;;7.75;;
62588;SDS011;58504;48.770;9.148;2023-05-23T03:41:54;8.73;;;7.82;;
62588;SDS011;58504;48.770;9.148;2023-05-23T03:44:20;9.25;;;7.35;;
62588;SDS011;58504;48.770;9.148;2023-05-23T03:46:48;8.80;;;7.55;;
62588;SDS011;58504;48.770;9.148;2023-05-23T03:49:15;8.13;;;7.32;;
62588;SDS011;58504;48.770;9.148;2023-05-23T03:51:42;9.20;;;6.70;;
62588;SDS011;58504;48.770;9.148;2023-05-23T03:54:08;7.80;;;6.47;;
62588;SDS011;58504;48.770;9.148;2023-05-23T03:56:35;8.77;;;7.07;;
62588;SDS011;58504;48.770;9.148;2023-05-23T03:59:02;7.88;;;6.78;;
62588;SDS011;58504;48.770;9.148;2023-05-23T04:01:29;8.70;;;7.60;;
62588;SDS011;58504;48.770;9.148;2023-05-23T04:03:57;7.65;;;6.95;;
62588;SDS011;58504;48.770;9.148;2023-05-23T04:06:24;8.98;;;7.10;;
62588;SDS011;58504;48.770;9.148;2023-05-23T04:08:51;10.73;;;8.32;;
62588;SDS011;58504;48.770;9.148;2023-05-23T04:11:18;8.15;;;7.35;;
62588;SDS011;58504;48.770;9.148;2023-05-23T04:13:46;8.80;;;7.07;;
62588;SDS011;58504;48.770;9.148;2023-05-23T04:16:12;10.15;;;7.30;;
62588;SDS011;58504;48.770;9.148;2023-05-23T04:18:39;8.43;;;7.38;;
62588;SDS011;58504;48.770;9.148;2023-05-23T04:21:08;9.25;;;7.20;;
62588;SDS011;58504;48.770;9.148;2023-05-23T04:23:35;8.57;;;7.22;;
62588;SDS011;58504;48.770;9.148;2023-05-23T04:26:02;8.82;;;7.93;;
62588;SDS011;58504;48.770;9.148;2023-05-23T04:28:29;7.65;;;6.65;;
62588;SDS011;58504;48.770;9.148;2023-05-23T04:30:56;8.85;;;7.68;;
62588;SDS011;58504;48.770;9.148;2023-05-23T04:33:23;7.35;;;6.72;;
62588;SDS011;58504;48.770;9.148;2023-05-23T04:35:52;8.30;;;7.43;;
62588;SDS011;58504;48.770;9.148;2023-05-23T04:38:20;7.47;;;5.72;;
62588;SDS011;58504;48.770;9.148;2023-05-23T04:40:49;6.82;;;6.22;;
62588;SDS011;58504;48.770;9.148;2023-05-23T04:43:16;6.20;;;5.35;;
62588;SDS011;58504;48.770;9.148;2023-05-23T04:45:43;6.13;;;5.53;;
62588;SDS011;58504;48.770;9.148;2023-05-23T04:48:10;6.05;;;5.55;;
62588;SDS011;58504;48.770;9.148;2023-05-23T04:50:41;6.28;;;5.68;;
62588;SDS011;58504;48.770;9.148;2023-05-23T04:53:08;6.30;;;5.50;;
62588;SDS011;58504;48.770;9.148;2023-05-23T04:55:36;6.05;;;5.45;;
62588;SDS011;58504;48.770;9.148;2023-05-23T04:58:03;5.82;;;5.32;;
62588;SDS011;58504;48.770;9.148;2023-05-23T05:00:29;6.45;;;5.10;;
62588;SDS011;58504;48.770;9.148;2023-05-23T05:02:56;6.03;;;5.53;;
62588;SDS011;58504;48.770;9.148;2023-05-23T05:05:23;4.97;;;4.55;;
62588;SDS011;58504;48.770;9.148;2023-05-23T05:07:50;6.45;;;5.38;;
62588;SDS011;58504;48.770;9.148;2023-05-23T05:10:16;5.45;;;4.90;;
62588;SDS011;58504;48.770;9.148;2023-05-23T05:12:45;5.40;;;4.90;;
62588;SDS011;58504;48.770;9.148;2023-05-23T05:15:13;5.88;;;5.30;;
62588;SDS011;58504;48.770;9.148;2023-05-23T05:17:41;5.32;;;4.82;;
62588;SDS011;58504;48.770;9.148;2023-05-23T05:20:08;5.88;;;5.03;;
62588;SDS011;58504;48.770;9.148;2023-05-23T05:22:36;5.53;;;5.03;;
62588;SDS011;58504;48.770;9.148;2023-05-23T05:25:04;5.53;;;5.03;;
62588;SDS011;58504;48.770;9.148;2023-05-23T05:27:32;6.07;;;5.10;;
62588;SDS011;58504;48.770;9.148;2023-05-23T05:30:00;5.40;;;4.90;;
62588;SDS011;58504;48.770;9.148;2023-05-23T05:32:29;4.90;;;4.50;;
62588;SDS011;58504;48.770;9.148;2023-05-23T05:34:57;5.60;;;5.10;;
62588;SDS011;58504;48.770;9.148;2023-05-23T05:37:24;4.93;;;4.53;;
62588;SDS011;58504;48.770;9.148;2023-05-23T05:39:51;6.97;;;5.10;;
62588;SDS011;58504;48.770;9.148;2023-05-23T05:42:18;5.43;;;5.03;;
62588;SDS011;58504;48.770;9.148;2023-05-23T05:44:45;4.97;;;4.57;;
62588;SDS011;58504;48.770;9.148;2023-05-23T05:47:14;5.97;;;5.38;;
62588;SDS011;58504;48.770;9.148;2023-05-23T05:49:40;5.88;;;5.30;;
62588;SDS011;58504;48.770;9.148;2023-05-23T05:52:07;5.95;;;5.35;;
62588;SDS011;58504;48.770;9.148;2023-05-23T05:54:34;5.75;;;5.25;;
62588;SDS011;58504;48.770;9.148;2023-05-23T05:57:01;5.28;;;4.78;;
62588;SDS011;58504;48.770;9.148;2023-05-23T05:59:28;5.32;;;4.88;;
62588;SDS011;58504;48.770;9.148;2023-05-23T06:01:55;6.00;;;5.38;;
62588;SDS011;58504;48.770;9.148;2023-05-23T06:04:23;5.55;;;5.05;;
62588;SDS011;58504;48.770;9.148;2023-05-23T06:06:49;6.57;;;5.90;;
62588;SDS011;58504;48.770;9.148;2023-05-23T06:09:16;6.20;;;5.60;;
62588;SDS011;58504;48.770;9.148;2023-05-23T06:11:43;5.40;;;4.93;;
62588;SDS011;58504;48.770;9.148;2023-05-23T06:14:10;5.68;;;5.15;;
62588;SDS011;58504;48.770;9.148;2023-05-23T06:16:37;7.93;;;6.75;;
62588;SDS011;58504;48.770;9.148;2023-05-23T06:19:04;10.15;;;8.52;;
62588;SDS011;58504;48.770;9.148;2023-05-23T06:21:32;9.45;;;8.15;;
62588;SDS011;58504;48.770;9.148;2023-05-23T06:23:59;7.85;;;7.15;;
62588;SDS011;58504;48.770;9.148;2023-05-23T06:26:25;8.35;;;7.60;;
62588;SDS011;58504;48.770;9.148;2023-05-23T06:28:52;8.30;;;7.50;;
62588;SDS011;58504;48.770;9.148;2023-05-23T06:31:19;7.63;;;6.82;;
62588;SDS011;58504;48.770;9.148;2023-05-23T06:33:46;6.97;;;6.38;;
62588;SDS011;58504;48.770;9.148;2023-05-23T06:36:12;6.70;;;6.10;;
62588;SDS011;58504;48.770;9.148;2023-05-23T06:38:40;6.93;;;5.63;;
62588;SDS011;58504;48.770;9.148;2023-05-23T06:41:07;7.05;;;6.35;;
62588;SDS011;58504;48.770;9.148;2023-05-23T06:43:34;6.13;;;5.63;;
62588;SDS011;58504;48.770;9.148;2023-05-23T06:46:01;8.63;;;6.18;;
62588;SDS011;58504;48.770;9.148;2023-05-23T06:48:27;6.47;;;5.88;;
62588;SDS011;58504;48.770;9.148;2023-05-23T06:50:54;6.72;;;6.13;;
62588;SDS011;58504;48.770;9.148;2023-05-23T06:53:21;6.50;;;5.72;;
62588;SDS011;58504;48.770;9.148;2023-05-23T06:55:49;6.13;;;5.53;;
62588;SDS011;58504;48.770;9.148;2023-05-23T06:58:16;7.93;;;5.55;;
62588;SDS011;58504;48.770;9.148;2023-05-23T07:00:42;5.30;;;4.88;;
62588;SDS011;58504;48.770;9.148;2023-05-23T07:03:09;5.53;;;5.13;;
62588;SDS011;58504;48.770;9.148;2023-05-23T07:05:36;7.53;;;6.07;;
62588;SDS011;58504;48.770;9.148;2023-05-23T07:08:03;6.30;;;5.80;;
62588;SDS011;58504;48.770;9.148;2023-05-23T07:10:30;6.07;;;5.47;;
62588;SDS011;58504;48.770;9.148;2023-05-23T07:13:00;6.38;;;5.45;;
62588;SDS011;58504;48.770;9.148;2023-05-23T07:15:26;6.05;;;5.38;;
62588;SDS011;58504;48.770;9.148;2023-05-23T07:17:53;5.80;;;5.13;;
62588;SDS011;58504;48.770;9.148;2023-05-23T07:20:20;5.03;;;4.63;;
62588;SDS011;58504;48.770;9.148;2023-05-23T07:22:47;5.80;;;5.40;;
62588;SDS011;58504;48.770;9.148;2023-05-23T07:25:15;5.70;;;5.10;;
62588;SDS011;58504;48.770;9.148;2023-05-23T07:27:42;8.02;;;5.38;;
62588;SDS011;58504;48.770;9.148;2023-05-23T07:30:10;6.15;;;5.55;;
62588;SDS011;58504;48.770;9.148;2023-05-23T07:32:38;5.70;;;5.18;;
62588;SDS011;58504;48.770;9.148;2023-05-23T07:35:05;5.05;;;4.63;;
62588;SDS011;58504;48.770;9.148;2023-05-23T07:37:32;7.22;;;5.45;;
62588;SDS011;58504;48.770;9.148;2023-05-23T07:39:59;5.70;;;5.05;;
62588;SDS011;58504;48.770;9.148;2023-05-23T07:42:26;5.53;;;4.93;;
62588;SDS011;58504;48.770;9.148;2023-05-23T07:44:53;5.32;;;4.88;;
62588;SDS011;58504;48.770;9.148;2023-05-23T07:47:21;4.63;;;4.22;;
62588;SDS011;58504;48.770;9.148;2023-05-23T07:49:48;4.95;;;4.55;;
62588;SDS011;58504;48.770;9.148;2023-05-23T07:52:16;5.55;;;5.03;;
62588;SDS011;58504;48.770;9.148;2023-05-23T07:54:42;5.15;;;4.65;;
62588;SDS011;58504;48.770;9.148;2023-05-23T07:57:09;4.75;;;4.32;;
62588;SDS011;58504;48.770;9.148;2023-05-23T07:59:36;4.97;;;4.57;;
62588;SDS011;58504;48.770;9.148;2023-05-23T08:02:03;5.63;;;5.22;;
62588;SDS011;58504;48.770;9.148;2023-05-23T08:04:31;5.63;;;4.80;;
62588;SDS011;58504;48.770;9.148;2023-05-23T08:06:58;5.10;;;4.70;;
62588;SDS011;58504;48.770;9.148;2023-05-23T08:09:25;5.03;;;4.60;;
62588;SDS011;58504;48.770;9.148;2023-05-23T08:11:52;4.90;;;4.28;;
62588;SDS011;58504;48.770;9.148;2023-05-23T08:14:18;5.35;;;4.85;;
62588;SDS011;58504;48.770;9.148;2023-05-23T08:16:45;4.85;;;4.47;;
62588;SDS011;58504;48.770;9.148;2023-05-23T08:19:13;5.03;;;4.63;;
62588;SDS011;58504;48.770;9.148;2023-05-23T08:21:41;4.38;;;4.07;;
62588;SDS011;58504;48.770;9.148;2023-05-23T08:24:08;5.20;;;4.80;;
62588;SDS011;58504;48.770;9.148;2023-05-23T08:26:35;5.20;;;4.80;;
62588;SDS011;58504;48.770;9.148;2023-05-23T08:29:01;6.22;;;5.28;;
62588;SDS011;58504;48.770;9.148;2023-05-23T08:31:28;4.78;;;4.13;;
62588;SDS011;58504;48.770;9.148;2023-05-23T08:33:56;5.53;;;4.78;;
62588;SDS011;58504;48.770;9.148;2023-05-23T08:36:22;5.72;;;4.22;;
62588;SDS011;58504;48.770;9.148;2023-05-23T08:38:51;4.30;;;4.00;;
62588;SDS011;58504;48.770;9.148;2023-05-23T08:41:18;5.07;;;4.53;;
62588;SDS011;58504;48.770;9.148;2023-05-23T08:43:45;4.47;;;4.07;;
62588;SDS011;58504;48.770;9.148;2023-05-23T08:46:12;6.13;;;4.95;;
62588;SDS011;58504;48.770;9.148;2023-05-23T08:48:41;5.18;;;4.72;;
62588;SDS011;58504;48.770;9.148;2023-05-23T08:51:08;4.53;;;4.13;;
62588;SDS011;58504;48.770;9.148;2023-05-23T08:53:39;4.85;;;4.45;;
62588;SDS011;58504;48.770;9.148;2023-05-23T08:56:09;4.75;;;4.35;;
62588;SDS011;58504;48.770;9.148;2023-05-23T08:58:36;4.68;;;4.28;;
62588;SDS011;58504;48.770;9.148;2023-05-23T09:01:04;5.10;;;4.68;;
62588;SDS011;58504;48.770;9.148;2023-05-23T09:03:34;4.40;;;4.03;;
62588;SDS011;58504;48.770;9.148;2023-05-23T09:06:02;5.15;;;4.65;;
62588;SDS011;58504;48.770;9.148;2023-05-23T09:08:29;4.07;;;3.80;;
62588;SDS011;58504;48.770;9.148;2023-05-23T09:10:56;6.82;;;4.43;;
62588;SDS011;58504;48.770;9.148;2023-05-23T09:13:28;4.35;;;4.05;;
62588;SDS011;58504;48.770;9.148;2023-05-23T09:15:55;4.63;;;4.32;;
62588;SDS011;58504;48.770;9.148;2023-05-23T09:18:26;9.77;;;4.28;;
62588;SDS011;58504;48.770;9.148;2023-05-23T09:20:53;5.00;;;4.60;;
62588;SDS011;58504;48.770;9.148;2023-05-23T09:23:19;4.15;;;3.85;;
62588;SDS011;58504;48.770;9.148;2023-05-23T09:25:46;4.32;;;3.92;;
62588;SDS011;58504;48.770;9.148;2023-05-23T09:28:14;4.28;;;3.97;;
62588;SDS011;58504;48.770;9.148;2023-05-23T09:30:42;4.05;;;3.75;;
62588;SDS011;58504;48.770;9.148;2023-05-23T09:33:09;4.40;;;4.00;;
62588;SDS011;58504;48.770;9.148;2023-05-23T09:35:42;5.28;;;4.78;;
62588;SDS011;58504;48.770;9.148;2023-05-23T09:38:10;4.18;;;3.78;;
62588;SDS011;58504;48.770;9.148;2023-05-23T09:40:36;3.78;;;3.47;;
62588;SDS011;58504;48.770;9.148;2023-05-23T09:43:09;4.25;;;3.95;;
62588;SDS011;58504;48.770;9.148;2023-05-23T09:45:36;4.72;;;4.32;;
62588;SDS011;58504;48.770;9.148;2023-05-23T09:48:06;4.03;;;3.72;;
62588;SDS011;58504;48.770;9.148;2023-05-23T09:50:37;4.13;;;3.83;;
62588;SDS011;58504;48.770;9.148;2023-05-23T09:53:05;3.92;;;3.65;;
62588;SDS011;58504;48.770;9.148;2023-05-23T09:55:32;4.25;;;3.95;;
62588;SDS011;58504;48.770;9.148;2023-05-23T09:57:58;4.13;;;3.85;;
62588;SDS011;58504;48.770;9.148;2023-05-23T10:00:26;4.30;;;4.00;;
62588;SDS011;58504;48.770;9.148;2023-05-23T10:02:54;4.22;;;3.92;;
62588;SDS011;58504;48.770;9.148;2023-05-23T10:05:32;4.03;;;3.72;;
62588;SDS011;58504;48.770;9.148;2023-05-23T10:08:02;4.95;;;4.55;;
62588;SDS011;58504;48.770;9.148;2023-05-23T10:10:43;5.47;;;4.18;;
62588;SDS011;58504;48.770;9.148;2023-05-23T10:13:42;4.03;;;3.78;;
62588;SDS011;58504;48.770;9.148;2023-05-23T10:16:17;4.32;;;4.03;;
62588;SDS011;58504;48.770;9.148;2023-05-23T10:18:47;5.03;;;4.63;;
62588;SDS011;58504;48.770;9.148;2023-05-23T10:21:28;5.57;;;5.07;;
62588;SDS011;58504;48.770;9.148;2023-05-23T10:23:58;5.13;;;4.72;;
62588;SDS011;58504;48.770;9.148;2023-05-23T10:26:26;4.82;;;4.38;;
62588;SDS011;58504;48.770;9.148;2023-05-23T10:28:53;7.38;;;6.68;;
62588;SDS011;58504;48.770;9.148;2023-05-23T10:31:20;9.52;;;8.40;;
62588;SDS011;58504;48.770;9.148;2023-05-23T10:33:49;7.80;;;7.10;;
62588;SDS011;58504;48.770;9.148;2023-05-23T10:36:24;7.57;;;6.57;;
62588;SDS011;58504;48.770;9.148;2023-05-23T10:38:57;6.57;;;6.07;;
62588;SDS011;58504;48.770;9.148;2023-05-23T10:41:30;6.50;;;6.00;;
62588;SDS011;58504;48.770;9.148;2023-05-23T10:44:07;9.13;;;7.15;;
62588;SDS011;58504;48.770;9.148;2023-05-23T10:46:50;8.88;;;6.60;;
62588;SDS011;58504;48.770;9.148;2023-05-23T10:49:18;8.50;;;7.80;;
62588;SDS011;58504;48.770;9.148;2023-05-23T10:51:47;6.68;;;5.88;;
62588;SDS011;58504;48.770;9.148;2023-05-23T10:54:16;8.30;;;5.70;;
62588;SDS011;58504;48.770;9.148;2023-05-23T10:56:44;5.50;;;5.00;;
62588;SDS011;58504;48.770;9.148;2023-05-23T10:59:18;4.88;;;4.57;;
62588;SDS011;58504;48.770;9.148;2023-05-23T11:01:48;6.88;;;4.15;;
62588;SDS011;58504;48.770;9.148;2023-05-23T11:04:23;5.13;;;4.55;;
62588;SDS011;58504;48.770;9.148;2023-05-23T11:06:52;5.07;;;4.30;;
62588;SDS011;58504;48.770;9.148;2023-05-23T11:09:19;4.07;;;3.88;;
62588;SDS011;58504;48.770;9.148;2023-05-23T11:11:52;4.22;;;3.95;;
62588;SDS011;58504;48.770;9.148;2023-05-23T11:14:30;4.43;;;4.13;;
62588;SDS011;58504;48.770;9.148;2023-05-23T11:16:58;4.82;;;4.53;;
62588;SDS011;58504;48.770;9.148;2023-05-23T11:19:25;5.40;;;4.90;;
62588;SDS011;58504;48.770;9.148;2023-05-23T11:21:56;4.63;;;4.18;;
62588;SDS011;58504;48.770;9.148;2023-05-23T11:27:14;4.40;;;4.10;;
62588;SDS011;58504;48.770;9.148;2023-05-23T11:29:44;4.35;;;4.05;;
62588;SDS011;58504;48.770;9.148;2023-05-23T11:32:11;4.28;;;3.80;;
62588;SDS011;58504;48.770;9.148;2023-05-23T11:34:38;4.72;;;4.30;;
62588;SDS011;58504;48.770;9.148;2023-05-23T11:37:06;4.32;;;4.03;;
62588;SDS011;58504;48.770;9.148;2023-05-23T11:39:35;4.38;;;3.97;;
62588;SDS011;58504;48.770;9.148;2023-05-23T11:42:02;5.00;;;4.50;;
62588;SDS011;58504;48.770;9.148;2023-05-23T11:44:30;4.05;;;3.75;;
62588;SDS011;58504;48.770;9.148;2023-05-23T11:47:00;4.22;;;3.92;;
62588;SDS011;58504;48.770;9.148;2023-05-23T11:49:28;4.50;;;4.20;;
62588;SDS011;58504;48.770;9.148;2023-05-23T11:51:56;4.20;;;3.90;;
62588;SDS011;58504;48.770;9.148;2023-05-23T11:54:25;4.47;;;4.18;;
62588;SDS011;58504;48.770;9.148;2023-05-23T11:56:52;3.92;;;3.63;;
62588;SDS011;58504;48.770;9.148;2023-05-23T11:59:20;4.15;;;3.85;;
62588;SDS011;58504;48.770;9.148;2023-05-23T12:01:47;4.38;;;4.07;;
62588;SDS011;58504;48.770;9.148;2023-05-23T12:04:14;4.15;;;3.83;;
62588;SDS011;58504;48.770;9.148;2023-05-23T12:06:40;4.28;;;3.97;;
62588;SDS011;58504;48.770;9.148;2023-05-23T12:09:09;4.95;;;4.22;;
62588;SDS011;58504;48.770;9.148;2023-05-23T12:11:38;4.13;;;3.83;;
62588;SDS011;58504;48.770;9.148;2023-05-23T12:14:05;5.30;;;4.80;;
62588;SDS011;58504;48.770;9.148;2023-05-23T12:16:32;4.05;;;3.85;;
62588;SDS011;58504;48.770;9.148;2023-05-23T12:19:00;4.10;;;3.83;;
62588;SDS011;58504;48.770;9.148;2023-05-23T12:21:39;4.10;;;3.80;;
62588;SDS011;58504;48.770;9.148;2023-05-23T12:24:11;4.13;;;3.83;;
62588;SDS011;58504;48.770;9.148;2023-05-23T12:26:46;4.22;;;3.92;;
62588;SDS011;58504;48.770;9.148;2023-05-23T12:29:13;3.78;;;3.58;;
62588;SDS011;58504;48.770;9.148;2023-05-23T12:31:41;4.35;;;4.00;;
62588;SDS011;58504;48.770;9.148;2023-05-23T12:34:09;4.45;;;4.05;;
62588;SDS011;58504;48.770;9.148;2023-05-23T12:36:36;4.10;;;3.80;;
62588;SDS011;58504;48.770;9.148;2023-05-23T12:39:04;3.92;;;3.67;;
62588;SDS011;58504;48.770;9.148;2023-05-23T12:41:31;4.00;;;3.70;;
62588;SDS011;58504;48.770;9.148;2023-05-23T12:44:00;4.22;;;3.80;;
62588;SDS011;58504;48.770;9.148;2023-05-23T12:46:27;4.38;;;4.07;;
62588;SDS011;58504;48.770;9.148;2023-05-23T12:48:54;4.45;;;4.15;;
62588;SDS011;58504;48.770;9.148;2023-05-23T12:51:21;4.93;;;4.50;;
62588;SDS011;58504;48.770;9.148;2023-05-23T12:53:48;4.30;;;4.00;;
62588;SDS011;58504;48.770;9.148;2023-05-23T12:56:15;5.57;;;3.63;;
62588;SDS011;58504;48.770;9.148;2023-05-23T12:58:42;4.40;;;4.00;;
62588;SDS011;58504;48.770;9.148;2023-05-23T13:01:10;4.47;;;4.07;;
62588;SDS011;58504;48.770;9.148;2023-05-23T13:03:37;3.63;;;3.42;;
62588;SDS011;58504;48.770;9.148;2023-05-23T13:06:04;3.90;;;3.65;;
62588;SDS011;58504;48.770;9.148;2023-05-23T13:08:31;3.80;;;3.50;;
62588;SDS011;58504;48.770;9.148;2023-05-23T13:10:58;3.95;;;3.65;;
62588;SDS011;58504;48.770;9.148;2023-05-23T13:13:25;3.97;;;3.67;;
62588;SDS011;58504;48.770;9.148;2023-05-23T13:15:52;4.70;;;4.30;;
62588;SDS011;58504;48.770;9.148;2023-05-23T13:18:20;3.35;;;3.15;;
62588;SDS011;58504;48.770;9.148;2023-05-23T13:20:46;4.28;;;3.75;;
62588;SDS011;58504;48.770;9.148;2023-05-23T13:23:13;3.63;;;3.42;;
62588;SDS011;58504;48.770;9.148;2023-05-23T13:25:40;3.80;;;3.60;;
62588;SDS011;58504;48.770;9.148;2023-05-23T13:28:07;4.10;;;3.80;;
62588;SDS011;58504;48.770;9.148;2023-05-23T13:30:34;3.70;;;3.40;;
62588;SDS011;58504;48.770;9.148;2023-05-23T13:33:01;3.88;;;3.63;;
62588;SDS011;58504;48.770;9.148;2023-05-23T13:35:30;3.50;;;3.30;;
62588;SDS011;58504;48.770;9.148;2023-05-23T13:37:57;3.17;;;2.97;;
62588;SDS011;58504;48.770;9.148;2023-05-23T13:40:23;4.43;;;3.65;;
62588;SDS011;58504;48.770;9.148;2023-05-23T13:42:50;3.35;;;3.15;;
62588;SDS011;58504;48.770;9.148;2023-05-23T13:45:17;3.83;;;3.53;;
62588;SDS011;58504;48.770;9.148;2023-05-23T13:47:46;3.30;;;3.00;;
62588;SDS011;58504;48.770;9.148;2023-05-23T13:50:13;2.58;;;2.47;;
62588;SDS011;58504;48.770;9.148;2023-05-23T13:52:41;3.20;;;3.00;;
62588;SDS011;58504;48.770;9.148;2023-05-23T13:55:08;3.30;;;3.10;;
62588;SDS011;58504;48.770;9.148;2023-05-23T13:57:35;3.13;;;2.90;;
62588;SDS011;58504;48.770;9.148;2023-05-23T14:00:02;4.15;;;3.08;;
62588;SDS011;58504;48.770;9.148;2023-05-23T14:02:29;3.30;;;3.00;;
62588;SDS011;58504;48.770;9.148;2023-05-23T14:04:56;3.20;;;3.00;;
62588;SDS011;58504;48.770;9.148;2023-05-23T14:07:23;2.92;;;2.72;;
62588;SDS011;58504;48.770;9.148;2023-05-23T14:09:51;5.43;;;2.92;;
62588;SDS011;58504;48.770;9.148;2023-05-23T14:12:18;3.63;;;3.35;;
62588;SDS011;58504;48.770;9.148;2023-05-23T14:14:45;3.20;;;2.90;;
62588;SDS011;58504;48.770;9.148;2023-05-23T14:17:14;3.25;;;2.80;;
62588;SDS011;58504;48.770;9.148;2023-05-23T14:19:41;3.25;;;2.95;;
62588;SDS011;58504;48.770;9.148;2023-05-23T14:22:08;2.65;;;2.45;;
62588;SDS011;58504;48.770;9.148;2023-05-23T14:24:35;3.28;;;3.08;;
62588;SDS011;58504;48.770;9.148;2023-05-23T14:27:03;2.90;;;2.70;;
62588;SDS011;58504;48.770;9.148;2023-05-23T14:29:30;2.88;;;2.70;;
62588;SDS011;58504;48.770;9.148;2023-05-23T14:31:57;3.10;;;2.90;;
62588;SDS011;58504;48.770;9.148;2023-05-23T14:34:24;3.08;;;2.88;;
62588;SDS011;58504;48.770;9.148;2023-05-23T14:36:51;3.10;;;2.90;;
62588;SDS011;58504;48.770;9.148;2023-05-23T14:39:19;3.60;;;3.30;;
62588;SDS011;58504;48.770;9.148;2023-05-23T14:41:45;3.40;;;2.95;;
62588;SDS011;58504;48.770;9.148;2023-05-23T14:44:14;3.10;;;2.90;;
62588;SDS011;58504;48.770;9.148;2023-05-23T14:46:40;2.80;;;2.60;;
62588;SDS011;58504;48.770;9.148;2023-05-23T14:49:12;2.38;;;2.28;;
62588;SDS011;58504;48.770;9.148;2023-05-23T14:51:39;3.40;;;2.90;;
62588;SDS011;58504;48.770;9.148;2023-05-23T14:54:06;2.50;;;2.40;;
62588;SDS011;58504;48.770;9.148;2023-05-23T14:56:33;3.10;;;2.90;;